Time;durP1;ratioP1;P1;durP2;ratioP2;P2;SDS_P1;SDS_P2;PMS_P1;PMS_P2;Temp;Humidity;BMP_temperature;BMP_pressure;BME280_temperature;BME280_humidity;BME280_pressure;Samples;Min_cycle;Max_cycle;Signal;HPM_P1;HPM_P2
2021/11/29 00:01:46;;;;;;;12.23;9.37;;;1.90;99.90;;;;;;6173718;23;20397;-88
2021/11/29 00:04:12;;;;;;;13.60;8.53;;;2.00;99.90;;;;;;6177358;23;20403;-89
2021/11/29 00:06:38;;;;;;;15.17;9.47;;;2.00;99.90;;;;;;6178878;23;20399;-90
2021/11/29 00:09:04;;;;;;;12.53;8.60;;;2.00;99.90;;;;;;6178896;23;20401;-89
2021/11/29 00:11:30;;;;;;;12.30;8.53;;;2.00;99.90;;;;;;6179056;23;20185;-89
2021/11/29 00:13:56;;;;;;;11.33;8.47;;;2.00;99.90;;;;;;6201816;23;20413;-90
2021/11/29 00:16:21;;;;;;;13.80;9.27;;;2.00;99.90;;;;;;6179493;23;20166;-89
2021/11/29 00:18:47;;;;;;;13.57;8.83;;;1.90;99.90;;;;;;6178650;23;20170;-89
2021/11/29 00:21:14;;;;;;;12.37;8.90;;;1.90;99.90;;;;;;6180123;23;20162;-89
2021/11/29 00:23:40;;;;;;;15.90;9.23;;;1.90;99.90;;;;;;6178460;23;20169;-90
2021/11/29 00:26:06;;;;;;;15.30;9.40;;;1.90;99.90;;;;;;6179140;23;20459;-89
2021/11/29 00:28:32;;;;;;;14.83;10.07;;;1.90;99.90;;;;;;6180350;23;20882;-90
2021/11/29 00:30:58;;;;;;;15.03;9.90;;;1.90;99.90;;;;;;6179167;23;20403;-90
2021/11/29 00:33:23;;;;;;;14.20;9.50;;;2.00;99.90;;;;;;6179666;23;20973;-90
2021/11/29 00:35:49;;;;;;;12.70;8.70;;;2.00;99.90;;;;;;6179101;23;20198;-90
2021/11/29 00:38:16;;;;;;;14.30;9.70;;;2.10;99.90;;;;;;6178993;23;20251;-88
2021/11/29 00:40:42;;;;;;;14.77;9.43;;;2.00;99.90;;;;;;6176199;23;20946;-90
2021/11/29 00:43:09;;;;;;;16.77;10.63;;;1.90;99.90;;;;;;6179217;23;20406;-89
2021/11/29 00:45:35;;;;;;;16.43;11.57;;;1.80;99.90;;;;;;6179263;23;20389;-90
2021/11/29 00:48:00;;;;;;;13.70;9.57;;;1.70;99.90;;;;;;6179298;23;20450;-89
2021/11/29 00:50:26;;;;;;;15.10;10.40;;;1.70;99.90;;;;;;6179117;23;20194;-89
2021/11/29 00:52:52;;;;;;;16.27;11.00;;;1.70;99.90;;;;;;6177393;23;20204;-90
2021/11/29 00:55:18;;;;;;;12.63;9.10;;;1.70;99.90;;;;;;6172215;23;20390;-89
2021/11/29 00:57:45;;;;;;;12.67;9.30;;;1.90;99.90;;;;;;6177246;23;21031;-89
2021/11/29 01:00:16;;;;;;;17.67;11.40;;;1.90;99.90;;;;;;6178571;23;20554;-89
2021/11/29 01:02:41;;;;;;;17.80;11.00;;;1.90;99.90;;;;;;6176205;23;20470;-88
2021/11/29 01:05:09;;;;;;;17.50;11.03;;;1.80;99.90;;;;;;6199874;23;20394;-89
2021/11/29 01:07:36;;;;;;;14.73;10.00;;;1.80;99.90;;;;;;6179748;23;20474;-89
2021/11/29 01:10:03;;;;;;;18.40;11.60;;;1.70;99.90;;;;;;6175637;23;20239;-88
2021/11/29 01:12:29;;;;;;;16.17;10.67;;;1.70;99.90;;;;;;6178598;23;21051;-89
2021/11/29 01:14:55;;;;;;;16.17;11.13;;;1.70;99.90;;;;;;6180070;23;20431;-88
2021/11/29 01:17:21;;;;;;;18.67;11.83;;;1.70;99.90;;;;;;6178421;23;20248;-89
2021/11/29 01:19:46;;;;;;;18.80;12.37;;;1.70;99.90;;;;;;6177702;23;20168;-87
2021/11/29 01:22:12;;;;;;;17.37;11.63;;;1.80;99.90;;;;;;6180067;23;20406;-88
2021/11/29 01:24:38;;;;;;;17.63;11.60;;;1.70;99.90;;;;;;6180366;23;20191;-88
2021/11/29 01:27:04;;;;;;;16.70;11.50;;;1.70;99.90;;;;;;6178216;23;20171;-88
2021/11/29 01:29:30;;;;;;;17.77;12.20;;;1.70;99.90;;;;;;6171644;23;20560;-88
2021/11/29 01:31:55;;;;;;;19.53;11.40;;;1.70;99.90;;;;;;6177253;23;20444;-89
2021/11/29 01:34:21;;;;;;;17.07;11.40;;;1.70;99.90;;;;;;6176869;23;20167;-90
2021/11/29 01:36:47;;;;;;;16.20;11.37;;;1.70;99.90;;;;;;6177066;23;20169;-89
2021/11/29 01:39:13;;;;;;;17.20;11.67;;;1.70;99.90;;;;;;6176854;23;20160;-90
2021/11/29 01:41:45;;;;;;;18.60;12.60;;;1.70;99.90;;;;;;6182149;23;20164;-89
2021/11/29 01:44:21;;;;;;;18.47;12.00;;;1.70;99.90;;;;;;6201733;23;20398;-89
2021/11/29 01:46:49;;;;;;;18.37;11.30;;;1.60;99.90;;;;;;6177794;23;20395;-89
2021/11/29 01:49:15;;;;;;;19.13;12.40;;;1.60;99.90;;;;;;6176749;23;20402;-89
2021/11/29 01:51:41;;;;;;;18.97;12.43;;;1.60;99.90;;;;;;6176758;23;20435;-89
2021/11/29 01:54:09;;;;;;;20.27;12.60;;;1.60;99.90;;;;;;6176805;23;20427;-89
2021/11/29 01:56:39;;;;;;;18.87;12.20;;;1.60;99.90;;;;;;6176148;23;20171;-89
2021/11/29 01:59:07;;;;;;;19.63;13.07;;;1.60;99.90;;;;;;6178721;23;20450;-89
2021/11/29 02:01:33;;;;;;;19.47;12.93;;;1.60;99.90;;;;;;6176357;23;20402;-89
2021/11/29 02:03:59;;;;;;;21.87;12.40;;;1.60;99.90;;;;;;6177099;23;20435;-89
2021/11/29 02:06:27;;;;;;;21.47;12.57;;;1.50;99.90;;;;;;6176147;23;20731;-90
2021/11/29 02:08:54;;;;;;;21.50;13.27;;;1.50;99.90;;;;;;6179343;23;20395;-89
2021/11/29 02:11:24;;;;;;;20.20;12.50;;;1.60;99.90;;;;;;6172020;23;20438;-89
2021/11/29 02:13:54;;;;;;;19.53;12.30;;;1.60;99.90;;;;;;6175454;23;20993;-89
2021/11/29 02:16:20;;;;;;;24.37;13.30;;;1.60;99.90;;;;;;6178784;23;20398;-89
2021/11/29 02:18:46;;;;;;;23.80;13.80;;;1.60;99.90;;;;;;6178658;23;20901;-89
2021/11/29 02:21:16;;;;;;;25.10;14.63;;;1.60;99.90;;;;;;6179744;23;20399;-89
2021/11/29 02:23:57;;;;;;;22.70;13.67;;;1.60;99.90;;;;;;6180209;23;20161;-90
2021/11/29 02:26:27;;;;;;;21.43;14.20;;;1.60;99.90;;;;;;6178081;23;20399;-89
2021/11/29 02:29:00;;;;;;;24.10;13.00;;;1.70;99.90;;;;;;6178946;23;20405;-88
2021/11/29 02:31:37;;;;;;;22.13;12.50;;;1.60;99.90;;;;;;6177709;23;20429;-90
2021/11/29 02:34:22;;;;;;;21.50;13.30;;;1.60;99.90;;;;;;6177546;23;20429;-90
2021/11/29 02:36:50;;;;;;;19.97;13.20;;;1.60;99.90;;;;;;6177912;23;20390;-90
2021/11/29 02:39:16;;;;;;;21.23;13.03;;;1.60;99.90;;;;;;6179996;23;20435;-90
2021/11/29 02:41:43;;;;;;;21.03;12.40;;;1.60;99.90;;;;;;6176536;23;20944;-89
2021/11/29 02:44:09;;;;;;;19.50;12.43;;;1.60;99.90;;;;;;6178315;23;20391;-90
2021/11/29 02:46:35;;;;;;;19.00;12.70;;;1.70;99.90;;;;;;6178148;23;20718;-90
2021/11/29 02:49:02;;;;;;;19.43;12.63;;;1.60;99.90;;;;;;6178258;23;20192;-90
2021/11/29 02:51:40;;;;;;;22.13;14.00;;;1.70;99.90;;;;;;6176358;23;20496;-89
2021/11/29 02:54:07;;;;;;;20.10;12.70;;;1.70;99.90;;;;;;6177742;23;20406;-89
2021/11/29 02:56:38;;;;;;;18.20;11.87;;;1.70;99.90;;;;;;6175039;23;20412;-88
2021/11/29 02:59:08;;;;;;;20.20;13.10;;;1.70;99.90;;;;;;6179171;23;20872;-89
2021/11/29 03:01:34;;;;;;;17.70;12.50;;;1.70;99.90;;;;;;6181007;23;20388;-91
2021/11/29 03:04:00;;;;;;;22.23;14.33;;;1.80;99.90;;;;;;6178014;23;20392;-89
2021/11/29 03:06:26;;;;;;;21.90;13.67;;;1.70;99.90;;;;;;6173246;23;21109;-88
2021/11/29 03:08:52;;;;;;;20.40;13.97;;;1.70;99.90;;;;;;6182498;23;20160;-89
2021/11/29 03:11:18;;;;;;;25.63;13.97;;;1.70;99.90;;;;;;6178425;23;20188;-90
2021/11/29 03:13:44;;;;;;;19.83;12.37;;;1.80;99.90;;;;;;6204280;23;20391;-89
2021/11/29 03:16:10;;;;;;;20.07;12.70;;;1.90;99.90;;;;;;6180240;23;20471;-89
2021/11/29 03:18:39;;;;;;;22.87;14.63;;;1.80;99.90;;;;;;6177235;23;20403;-89
2021/11/29 03:21:06;;;;;;;20.27;14.20;;;1.70;99.90;;;;;;6179526;23;20396;-89
2021/11/29 03:23:33;;;;;;;25.20;15.50;;;1.70;99.90;;;;;;6179948;23;20435;-90
2021/11/29 03:26:07;;;;;;;21.60;15.23;;;1.70;99.90;;;;;;6179274;23;20777;-89
2021/11/29 03:28:38;;;;;;;21.73;14.97;;;1.80;99.90;;;;;;6180854;23;20399;-90
2021/11/29 03:31:06;;;;;;;26.10;16.87;;;1.70;99.90;;;;;;6180435;23;20399;-89
2021/11/29 03:33:33;;;;;;;22.30;15.60;;;1.80;99.90;;;;;;6181143;23;20803;-90
2021/11/29 03:35:59;;;;;;;22.60;15.00;;;1.80;99.90;;;;;;6179494;23;20878;-89
2021/11/29 03:38:25;;;;;;;25.40;16.13;;;1.90;99.90;;;;;;6177203;23;20468;-89
2021/11/29 03:40:50;;;;;;;26.17;17.73;;;1.80;99.90;;;;;;6178665;23;21084;-89
2021/11/29 03:43:16;;;;;;;25.17;17.13;;;1.80;99.90;;;;;;6181308;23;20400;-90
2021/11/29 03:45:42;;;;;;;25.80;16.30;;;1.80;99.90;;;;;;6179173;23;20605;-90
2021/11/29 03:48:08;;;;;;;25.00;17.20;;;1.80;99.90;;;;;;6179861;23;20176;-90
2021/11/29 03:50:33;;;;;;;32.17;18.87;;;1.70;99.90;;;;;;6180201;23;20576;-90
2021/11/29 03:52:59;;;;;;;30.43;19.27;;;1.70;99.90;;;;;;6180175;23;20222;-90
2021/11/29 03:55:25;;;;;;;28.10;18.83;;;1.60;99.90;;;;;;6180879;23;21014;-90
2021/11/29 03:57:51;;;;;;;29.83;17.93;;;1.60;99.90;;;;;;6180769;23;20170;-90
2021/11/29 04:00:17;;;;;;;28.87;17.67;;;1.60;99.90;;;;;;6179910;23;20392;-90
2021/11/29 04:02:43;;;;;;;26.07;17.27;;;1.70;99.90;;;;;;6179454;23;20705;-90
2021/11/29 04:05:09;;;;;;;27.97;16.93;;;1.60;99.90;;;;;;6181273;23;20396;-90
2021/11/29 04:07:34;;;;;;;29.60;19.30;;;1.60;99.90;;;;;;6180133;23;20167;-91
2021/11/29 04:10:00;;;;;;;32.67;18.53;;;1.50;99.90;;;;;;6179889;23;20897;-90
2021/11/29 04:12:35;;;;;;;29.57;16.87;;;1.50;99.90;;;;;;6205161;23;20188;-90
2021/11/29 04:15:02;;;;;;;24.30;15.23;;;1.60;99.90;;;;;;6180817;23;20403;-90
2021/11/29 04:17:28;;;;;;;25.10;16.30;;;1.60;99.90;;;;;;6180635;23;20395;-90
2021/11/29 04:19:54;;;;;;;26.17;17.50;;;1.60;99.90;;;;;;6180726;23;20782;-90
2021/11/29 04:22:20;;;;;;;29.10;17.37;;;1.60;99.90;;;;;;6180627;23;20170;-91
2021/11/29 04:24:47;;;;;;;24.70;15.60;;;1.50;99.90;;;;;;6180347;23;20160;-92
2021/11/29 04:27:13;;;;;;;24.90;16.97;;;1.60;99.90;;;;;;6182097;23;20391;-92
2021/11/29 04:29:45;;;;;;;23.33;16.47;;;1.70;99.90;;;;;;6182893;23;20418;-91
2021/11/29 04:32:12;;;;;;;25.83;17.30;;;1.70;99.90;;;;;;6182688;23;20439;-91
2021/11/29 04:34:38;;;;;;;24.67;16.27;;;1.60;99.90;;;;;;6178320;23;20481;-91
2021/11/29 04:37:05;;;;;;;28.90;17.40;;;1.70;99.90;;;;;;6205987;23;20439;-92
2021/11/29 04:39:32;;;;;;;28.40;17.77;;;1.70;99.90;;;;;;6180170;23;20726;-91
2021/11/29 04:41:59;;;;;;;30.23;18.87;;;1.60;99.90;;;;;;6189599;23;20470;-90
2021/11/29 04:44:24;;;;;;;22.47;15.77;;;1.60;99.90;;;;;;6198075;23;20439;-90
2021/11/29 04:46:51;;;;;;;31.17;19.50;;;1.60;99.90;;;;;;6180171;23;20888;-91
2021/11/29 04:49:17;;;;;;;31.17;16.67;;;1.70;99.90;;;;;;6179029;23;20452;-90
2021/11/29 04:51:42;;;;;;;26.00;15.63;;;1.70;99.90;;;;;;6179800;23;20435;-90
2021/11/29 04:54:09;;;;;;;26.83;15.33;;;1.70;99.90;;;;;;6181144;23;20405;-91
2021/11/29 04:56:37;;;;;;;25.47;16.77;;;1.60;99.90;;;;;;6178921;23;20172;-91
2021/11/29 04:59:03;;;;;;;22.80;15.27;;;1.70;99.90;;;;;;6180561;23;20480;-92
2021/11/29 05:01:29;;;;;;;23.33;16.00;;;1.70;99.90;;;;;;6178842;23;21330;-92
2021/11/29 05:03:55;;;;;;;24.37;16.33;;;1.70;99.90;;;;;;6177878;23;20482;-91
2021/11/29 05:06:20;;;;;;;32.10;18.00;;;1.70;99.90;;;;;;6180244;23;20773;-92
2021/11/29 05:08:46;;;;;;;26.10;16.03;;;1.70;99.90;;;;;;6180742;23;20175;-91
2021/11/29 05:11:12;;;;;;;23.37;16.40;;;1.70;99.90;;;;;;6181319;23;20163;-91
2021/11/29 05:13:38;;;;;;;27.33;17.70;;;1.70;99.90;;;;;;6180553;23;20177;-90
2021/11/29 05:16:05;;;;;;;26.90;16.93;;;1.80;99.90;;;;;;6182298;23;20482;-92
2021/11/29 05:18:31;;;;;;;27.57;17.40;;;1.80;99.90;;;;;;6181045;23;20409;-92
2021/11/29 05:20:56;;;;;;;26.50;15.90;;;1.80;99.90;;;;;;6180257;23;20393;-91
2021/11/29 05:23:25;;;;;;;26.50;16.50;;;1.80;99.90;;;;;;6180026;23;20403;-91
2021/11/29 05:25:51;;;;;;;27.93;18.20;;;1.80;99.90;;;;;;6180640;23;20204;-91
2021/11/29 05:28:17;;;;;;;29.33;17.80;;;1.80;99.90;;;;;;6180433;23;20430;-92
2021/11/29 05:30:44;;;;;;;25.57;16.17;;;1.70;99.90;;;;;;6180349;23;20169;-91
2021/11/29 05:33:11;;;;;;;25.37;15.07;;;1.80;99.90;;;;;;6179639;23;20557;-90
2021/11/29 05:35:37;;;;;;;24.03;15.77;;;1.80;99.90;;;;;;6181145;23;20418;-90
2021/11/29 05:38:03;;;;;;;24.90;16.77;;;1.80;99.90;;;;;;6181016;23;20399;-91
2021/11/29 05:40:30;;;;;;;31.10;17.73;;;1.70;99.90;;;;;;6179657;23;20164;-90
2021/11/29 05:42:56;;;;;;;31.30;17.07;;;1.70;99.90;;;;;;6180894;23;20402;-90
2021/11/29 05:45:22;;;;;;;27.03;17.80;;;1.80;99.90;;;;;;6179349;23;20420;-90
2021/11/29 05:47:51;;;;;;;27.20;16.10;;;1.80;99.90;;;;;;6179441;23;20463;-90
2021/11/29 05:50:22;;;;;;;28.40;16.67;;;1.80;99.90;;;;;;6175420;23;20403;-89
2021/11/29 05:53:24;;;;;;;28.77;15.60;;;1.80;99.90;;;;;;6178792;23;20555;-91
2021/11/29 05:55:49;;;;;;;29.30;17.30;;;1.80;99.90;;;;;;6181016;23;20418;-88
2021/11/29 05:58:15;;;;;;;23.97;14.70;;;1.80;99.90;;;;;;6180483;23;20410;-89
2021/11/29 06:00:41;;;;;;;29.90;17.27;;;1.80;99.90;;;;;;6182220;23;20167;-89
2021/11/29 06:03:06;;;;;;;25.80;15.90;;;1.80;99.90;;;;;;6181526;23;20159;-91
2021/11/29 06:05:32;;;;;;;20.57;14.00;;;1.80;99.90;;;;;;6182577;23;20156;-91
2021/11/29 06:07:58;;;;;;;23.37;12.50;;;1.80;99.90;;;;;;6180432;23;20161;-89
2021/11/29 06:10:24;;;;;;;22.30;13.37;;;1.70;99.90;;;;;;6186389;23;20642;-90
2021/11/29 06:12:49;;;;;;;19.80;12.90;;;1.80;99.90;;;;;;6198841;23;20281;-85
2021/11/29 06:15:16;;;;;;;20.03;11.60;;;1.80;99.90;;;;;;6182653;23;20188;-85
2021/11/29 06:17:43;;;;;;;25.17;13.00;;;1.70;99.90;;;;;;6178384;23;20554;-84
2021/11/29 06:20:10;;;;;;;17.70;11.10;;;1.80;99.90;;;;;;6180428;23;20418;-84
2021/11/29 06:22:36;;;;;;;19.77;12.10;;;1.80;99.90;;;;;;6179716;23;20838;-85
2021/11/29 06:25:03;;;;;;;21.73;13.00;;;1.80;99.90;;;;;;6180425;23;20471;-86
2021/11/29 06:27:29;;;;;;;18.97;11.93;;;1.70;99.90;;;;;;6178844;23;20394;-85
2021/11/29 06:29:55;;;;;;;24.50;14.20;;;1.80;99.90;;;;;;6180442;23;20869;-85
2021/11/29 06:32:21;;;;;;;24.30;13.23;;;1.80;99.90;;;;;;6180471;23;20226;-88
2021/11/29 06:34:46;;;;;;;20.37;13.87;;;1.70;99.90;;;;;;6182494;23;20494;-86
2021/11/29 06:37:12;;;;;;;20.53;13.53;;;1.80;99.90;;;;;;6181640;23;20164;-87
2021/11/29 06:39:39;;;;;;;21.70;12.67;;;1.70;99.90;;;;;;6182277;23;20250;-85
2021/11/29 06:42:07;;;;;;;25.00;13.70;;;1.60;99.90;;;;;;6180585;23;20399;-86
2021/11/29 06:44:34;;;;;;;20.50;13.27;;;1.70;99.90;;;;;;6182316;23;20824;-85
2021/11/29 06:47:00;;;;;;;19.30;12.00;;;1.70;99.90;;;;;;6180668;23;20725;-87
2021/11/29 06:49:26;;;;;;;21.30;12.43;;;1.70;99.90;;;;;;6181629;23;20466;-85
2021/11/29 06:51:52;;;;;;;21.23;11.10;;;1.60;99.90;;;;;;6183024;23;20210;-86
2021/11/29 06:54:20;;;;;;;18.77;10.97;;;1.70;99.90;;;;;;6204409;23;20452;-87
2021/11/29 06:56:47;;;;;;;18.03;12.00;;;1.60;99.90;;;;;;6177962;23;20407;-86
2021/11/29 06:59:14;;;;;;;19.47;12.07;;;1.60;99.90;;;;;;6201380;23;20398;-85
2021/11/29 07:01:40;;;;;;;15.37;11.20;;;1.70;99.90;;;;;;6180014;23;20398;-86
2021/11/29 07:04:08;;;;;;;21.20;11.80;;;1.70;99.90;;;;;;6181389;23;20167;-87
2021/11/29 07:06:36;;;;;;;20.67;12.43;;;1.60;99.90;;;;;;6178999;23;20429;-86
2021/11/29 07:16:37;;;;;;;18.07;10.57;;;1.70;99.90;;;;;;6188842;23;20521;-85
2021/11/29 07:19:54;;;;;;;17.70;9.53;;;1.70;99.90;;;;;;6178635;23;20405;-85
2021/11/29 07:22:24;;;;;;;16.30;9.93;;;1.70;99.90;;;;;;6179324;23;20463;-86
2021/11/29 07:24:52;;;;;;;20.10;11.13;;;1.60;99.90;;;;;;6178913;23;20392;-86
2021/11/29 07:27:19;;;;;;;15.90;10.17;;;1.60;99.90;;;;;;6179293;23;20873;-86
2021/11/29 07:30:19;;;;;;;15.13;10.80;;;1.60;99.90;;;;;;6179772;23;20401;-85
2021/11/29 07:32:55;;;;;;;;;;;;;;;;;;;;;
2021/11/29 07:35:44;;;;;;;15.47;9.27;;;2.00;99.90;;;;;;6202588;23;20818;-88
2021/11/29 07:41:55;;;;;;;18.17;9.73;;;1.80;99.90;;;;;;6162116;23;20410;-87
2021/11/29 07:47:23;;;;;;;11.23;7.43;;;1.70;99.90;;;;;;6197221;23;20414;-88
2021/11/29 07:49:56;;;;;;;12.27;8.50;;;1.80;99.90;;;;;;6155973;23;20406;-88
2021/11/29 07:52:38;;;;;;;9.43;7.10;;;1.90;99.90;;;;;;6178135;23;20471;-88
2021/11/29 07:55:30;;;;;;;9.23;6.10;;;1.80;99.90;;;;;;6199822;23;20778;-89
2021/11/29 07:58:06;;;;;;;12.70;7.77;;;1.80;99.90;;;;;;6178920;23;20409;-87
2021/11/29 08:00:37;;;;;;;11.43;6.27;;;1.80;99.90;;;;;;6178676;23;20399;-87
2021/11/29 08:03:05;;;;;;;10.07;6.27;;;1.80;99.90;;;;;;6178186;23;20399;-88
2021/11/29 08:05:32;;;;;;;8.80;6.13;;;1.80;99.90;;;;;;6176663;23;20398;-89
2021/11/29 08:08:00;;;;;;;8.27;5.10;;;1.80;99.90;;;;;;6178630;23;20793;-85
2021/11/29 08:10:29;;;;;;;9.23;6.27;;;1.80;99.90;;;;;;6177619;23;20446;-86
2021/11/29 08:12:55;;;;;;;10.87;8.20;;;1.90;99.90;;;;;;6178197;23;20447;-86
2021/11/29 08:15:21;;;;;;;12.00;6.30;;;1.90;99.90;;;;;;6178324;23;20486;-86
2021/11/29 08:17:48;;;;;;;10.33;6.63;;;1.80;99.90;;;;;;6176955;23;20391;-85
2021/11/29 08:20:14;;;;;;;8.70;6.30;;;1.90;99.90;;;;;;6178159;23;20718;-85
2021/11/29 08:22:40;;;;;;;11.30;7.07;;;1.90;99.90;;;;;;6179898;23;20680;-90
2021/11/29 08:25:07;;;;;;;12.13;8.03;;;1.90;99.90;;;;;;6177909;23;20427;-84
2021/11/29 08:27:33;;;;;;;11.33;6.67;;;1.90;99.90;;;;;;6177506;23;20502;-84
2021/11/29 08:30:05;;;;;;;8.40;5.97;;;1.90;99.90;;;;;;6177394;23;20732;-84
2021/11/29 08:32:31;;;;;;;9.30;5.93;;;2.00;99.90;;;;;;6178757;23;20438;-83
2021/11/29 08:34:56;;;;;;;10.90;6.07;;;2.00;99.90;;;;;;6178239;23;20400;-84
2021/11/29 08:37:22;;;;;;;10.90;6.73;;;2.00;99.90;;;;;;6178970;23;20164;-86
2021/11/29 08:39:48;;;;;;;12.23;7.90;;;1.90;99.90;;;;;;6178397;23;20215;-83
2021/11/29 08:42:14;;;;;;;8.20;6.40;;;1.90;99.90;;;;;;6177197;23;20169;-85
2021/11/29 08:44:39;;;;;;;12.57;7.63;;;2.10;99.90;;;;;;6178414;23;20199;-80
2021/11/29 08:47:05;;;;;;;13.93;7.90;;;2.20;99.90;;;;;;6179782;23;20542;-84
2021/11/29 08:49:32;;;;;;;18.97;9.90;;;2.20;99.90;;;;;;6177586;23;20159;-83
2021/11/29 08:51:58;;;;;;;11.90;7.50;;;2.10;99.90;;;;;;6178377;23;20187;-84
2021/11/29 08:54:24;;;;;;;13.80;8.70;;;2.30;99.90;;;;;;6178801;23;20866;-83
2021/11/29 08:56:50;;;;;;;10.27;6.17;;;2.60;99.90;;;;;;6177767;23;20435;-85
2021/11/29 08:59:20;;;;;;;14.50;8.27;;;2.50;99.90;;;;;;6177969;23;20170;-87
2021/11/29 09:01:49;;;;;;;12.20;6.10;;;2.20;99.90;;;;;;6182359;23;20423;-91
2021/11/29 09:07:03;;;;;;;11.83;8.07;;;2.20;99.90;;;;;;6203943;23;20393;-85
2021/11/29 09:09:31;;;;;;;10.03;6.40;;;2.30;99.90;;;;;;6176491;23;20406;-85
2021/11/29 09:11:59;;;;;;;11.20;5.90;;;2.60;99.90;;;;;;6192030;23;20747;-85
2021/11/29 09:14:25;;;;;;;7.27;5.30;;;2.60;99.90;;;;;;6184043;23;20467;-85
2021/11/29 09:16:56;;;;;;;9.77;5.83;;;2.50;99.90;;;;;;6176516;23;20390;-85
2021/11/29 09:19:41;;;;;;;10.27;4.63;;;2.60;99.90;;;;;;6178084;23;20401;-86
2021/11/29 09:22:07;;;;;;;9.93;6.07;;;2.70;99.90;;;;;;6177710;23;20396;-85
2021/11/29 09:24:33;;;;;;;6.67;5.00;;;2.80;99.90;;;;;;6177717;23;20747;-85
2021/11/29 09:27:00;;;;;;;8.03;5.93;;;2.90;99.90;;;;;;6178006;23;20386;-85
2021/11/29 09:29:26;;;;;;;10.63;6.30;;;2.90;99.90;;;;;;6177455;23;20169;-85
2021/11/29 09:31:53;;;;;;;10.10;5.40;;;2.90;99.90;;;;;;6179611;23;20513;-85
2021/11/29 09:34:28;;;;;;;8.60;5.80;;;3.20;99.90;;;;;;6179054;23;20399;-85
2021/11/29 09:36:54;;;;;;;9.63;5.57;;;3.30;99.90;;;;;;6179742;23;20413;-85
2021/11/29 09:39:30;;;;;;;7.00;5.23;;;3.40;99.90;;;;;;6205572;23;20401;-84
2021/11/29 09:41:56;;;;;;;7.93;5.03;;;3.40;99.90;;;;;;6179055;23;20442;-84
2021/11/29 09:44:22;;;;;;;7.97;5.70;;;3.60;99.90;;;;;;6179497;23;20399;-84
2021/11/29 09:46:48;;;;;;;11.90;5.23;;;3.60;99.90;;;;;;6178350;23;20159;-85
2021/11/29 09:49:14;;;;;;;7.23;4.10;;;3.80;99.90;;;;;;6154728;23;20582;-87
2021/11/29 09:51:40;;;;;;;6.30;4.50;;;4.20;99.90;;;;;;6177720;23;20438;-85
2021/11/29 09:54:08;;;;;;;7.70;3.80;;;4.70;99.90;;;;;;6180857;23;20596;-86
2021/11/29 09:56:35;;;;;;;7.43;4.27;;;5.20;99.90;;;;;;6179406;23;20216;-86
2021/11/29 09:59:01;;;;;;;7.10;4.13;;;5.50;99.90;;;;;;6178374;23;20412;-84
2021/11/29 10:01:27;;;;;;;5.53;4.53;;;5.50;99.90;;;;;;6178093;23;20404;-85
2021/11/29 10:04:19;;;;;;;5.67;4.23;;;5.40;99.90;;;;;;6177174;23;20402;-85
2021/11/29 10:06:48;;;;;;;7.90;4.60;;;5.90;99.90;;;;;;6206667;23;20405;-86
2021/11/29 10:09:30;;;;;;;6.47;4.23;;;6.00;99.90;;;;;;6181916;23;20432;-85
2021/11/29 10:12:19;;;;;;;6.43;3.50;;;5.80;99.90;;;;;;6183227;23;20444;-84
2021/11/29 10:14:44;;;;;;;5.50;3.57;;;6.10;99.90;;;;;;6166010;23;20491;-87
2021/11/29 10:17:10;;;;;;;3.40;3.00;;;6.70;99.90;;;;;;6181465;23;20432;-85
2021/11/29 10:19:38;;;;;;;4.50;3.60;;;6.90;99.90;;;;;;6181507;23;20598;-85
2021/11/29 10:22:18;;;;;;;3.10;2.40;;;6.80;99.90;;;;;;6182801;23;20732;-86
2021/11/29 10:24:45;;;;;;;3.57;2.17;;;5.70;99.90;;;;;;6182973;23;20461;-86
2021/11/29 10:28:28;;;;;;;;;;;;;;;;;;;;;
2021/11/29 10:31:23;;;;;;;4.73;2.57;;;4.70;99.90;;;;;;6201653;23;20403;-87
2021/11/29 10:33:57;;;;;;;5.80;3.83;;;4.30;99.90;;;;;;6181584;23;20415;-87
2021/11/29 10:36:25;;;;;;;3.20;2.40;;;4.10;99.90;;;;;;6181455;23;20399;-86
2021/11/29 10:38:55;;;;;;;3.33;2.30;;;3.70;99.90;;;;;;6181948;23;20395;-87
2021/11/29 10:41:32;;;;;;;6.17;3.00;;;3.90;99.90;;;;;;6197135;23;20442;-86
2021/11/29 10:44:01;;;;;;;5.30;2.53;;;4.00;99.90;;;;;;6193921;23;20402;-86
2021/11/29 10:46:32;;;;;;;3.60;2.63;;;4.10;99.90;;;;;;6181484;23;20383;-87
2021/11/29 10:49:04;;;;;;;2.90;2.30;;;4.30;99.90;;;;;;6182041;23;20412;-85
2021/11/29 10:51:30;;;;;;;4.27;2.50;;;4.80;99.90;;;;;;6181916;23;20434;-85
2021/11/29 10:53:57;;;;;;;5.17;2.90;;;5.00;99.90;;;;;;6180003;23;20469;-87
2021/11/29 10:56:26;;;;;;;4.00;2.63;;;6.00;99.90;;;;;;6174468;23;20467;-88
2021/11/29 10:58:57;;;;;;;3.83;2.70;;;6.00;99.90;;;;;;6173418;23;20406;-88
2021/11/29 11:02:04;;;;;;;4.47;2.53;;;5.60;99.90;;;;;;6175764;23;20402;-87
2021/11/29 11:04:45;;;;;;;5.03;2.63;;;4.70;99.90;;;;;;6051683;23;20776;-87
2021/11/29 11:07:25;;;;;;;3.00;2.40;;;4.40;99.90;;;;;;6049069;23;20406;-86
2021/11/29 11:10:03;;;;;;;3.80;2.30;;;4.20;99.90;;;;;;6134784;23;20528;-86
2021/11/29 11:12:39;;;;;;;3.53;2.40;;;4.10;99.90;;;;;;6172415;23;20446;-86
2021/11/29 11:15:17;;;;;;;2.50;1.40;;;3.70;99.90;;;;;;6196904;23;20401;-85
2021/11/29 11:17:51;;;;;;;2.87;1.90;;;3.80;99.90;;;;;;6174646;23;20402;-86
2021/11/29 11:20:17;;;;;;;3.93;2.13;;;3.90;99.90;;;;;;6173639;23;20395;-86
2021/11/29 11:22:49;;;;;;;3.90;2.30;;;4.90;99.90;;;;;;6174908;23;20405;-86
2021/11/29 11:25:18;;;;;;;2.43;2.10;;;5.00;99.90;;;;;;6171653;23;20164;-86
2021/11/29 11:27:58;;;;;;;6.50;2.73;;;5.10;99.90;;;;;;6173168;23;20428;-86
2021/11/29 11:30:25;;;;;;;2.73;2.00;;;6.60;99.90;;;;;;6172445;23;20406;-86
2021/11/29 11:33:09;;;;;;;2.67;2.17;;;8.50;98.80;;;;;;6169608;23;20532;-86
2021/11/29 11:35:38;;;;;;;3.73;2.10;;;7.60;98.20;;;;;;6173078;23;20394;-86
2021/11/29 11:38:09;;;;;;;3.50;1.97;;;6.40;99.30;;;;;;6173800;23;20476;-86
2021/11/29 11:40:46;;;;;;;3.40;2.30;;;5.40;99.90;;;;;;6171569;23;20398;-86
2021/11/29 11:43:14;;;;;;;3.53;3.00;;;4.50;99.90;;;;;;6173084;23;20428;-86
2021/11/29 11:45:52;;;;;;;4.20;2.50;;;4.10;99.90;;;;;;6170523;23;20397;-86
2021/11/29 11:48:18;;;;;;;5.73;2.30;;;4.00;99.90;;;;;;6167075;23;20409;-85
2021/11/29 11:50:48;;;;;;;10.37;2.23;;;4.00;99.90;;;;;;6171152;23;20389;-86
2021/11/29 11:53:14;;;;;;;3.30;2.73;;;4.10;99.90;;;;;;6172198;23;20472;-85
2021/11/29 11:55:47;;;;;;;8.80;2.30;;;4.00;99.90;;;;;;6172270;23;20897;-85
2021/11/29 11:58:16;;;;;;;2.20;1.93;;;4.00;99.90;;;;;;6172700;23;20421;-86
2021/11/29 12:00:46;;;;;;;4.90;2.53;;;4.40;99.90;;;;;;6171116;23;20474;-86
2021/11/29 12:03:23;;;;;;;2.00;1.70;;;4.30;99.90;;;;;;6167967;23;20439;-86
2021/11/29 12:05:48;;;;;;;5.07;1.90;;;4.30;99.90;;;;;;6169797;23;20394;-86
2021/11/29 12:08:40;;;;;;;3.93;2.13;;;4.20;99.90;;;;;;6171457;23;20521;-87
2021/11/29 12:11:25;;;;;;;2.70;1.80;;;4.30;99.90;;;;;;6187727;23;20203;-87
2021/11/29 12:14:21;;;;;;;6.27;2.83;;;4.10;99.90;;;;;;6181678;23;20411;-86
2021/11/29 12:17:17;;;;;;;5.10;3.13;;;4.00;99.90;;;;;;6171824;23;20742;-87
2021/11/29 12:19:46;;;;;;;4.37;2.40;;;4.60;99.90;;;;;;6166587;23;20430;-86
2021/11/29 12:22:20;;;;;;;3.20;1.93;;;4.50;99.90;;;;;;6170982;23;20396;-86
2021/11/29 12:24:55;;;;;;;3.00;2.60;;;4.40;99.90;;;;;;6171134;23;20391;-86
2021/11/29 12:27:21;;;;;;;6.93;2.40;;;4.00;99.90;;;;;;6170865;23;20430;-86
2021/11/29 12:29:57;;;;;;;4.17;2.23;;;3.90;99.90;;;;;;6199209;23;20473;-86
2021/11/29 12:32:24;;;;;;;3.87;2.33;;;3.80;99.90;;;;;;6170690;23;20915;-86
2021/11/29 12:35:08;;;;;;;6.53;2.67;;;3.80;99.90;;;;;;6169255;23;20391;-85
2021/11/29 12:37:36;;;;;;;2.53;2.30;;;3.60;99.90;;;;;;6171088;23;20724;-88
2021/11/29 12:40:11;;;;;;;4.53;2.50;;;3.60;99.90;;;;;;6171728;23;20481;-86
2021/11/29 12:42:40;;;;;;;2.70;1.83;;;3.70;99.90;;;;;;6170483;23;20512;-86
2021/11/29 12:45:08;;;;;;;5.93;2.83;;;3.70;99.90;;;;;;6169386;23;20394;-85
2021/11/29 12:48:01;;;;;;;;;;;;;;;;;;;;;
2021/11/29 12:50:51;;;;;;;;;;;;;;;;;;;;;
2021/11/29 12:53:29;;;;;;;1.90;1.53;;;4.00;99.90;;;;;;6176020;23;20442;-85
2021/11/29 12:56:04;;;;;;;3.17;2.00;;;3.50;99.90;;;;;;6172711;23;20472;-85
2021/11/29 12:58:37;;;;;;;5.70;2.83;;;3.30;99.90;;;;;;6172127;23;20805;-86
2021/11/29 13:01:11;;;;;;;4.90;2.23;;;3.40;99.90;;;;;;6170405;23;20445;-86
2021/11/29 13:03:52;;;;;;;5.17;3.30;;;3.30;99.90;;;;;;6170134;23;20399;-85
2021/11/29 13:06:22;;;;;;;2.97;2.50;;;3.20;99.90;;;;;;6170452;23;20445;-86
2021/11/29 13:08:58;;;;;;;5.70;3.40;;;3.10;99.90;;;;;;6172063;23;20386;-85
2021/11/29 13:11:36;;;;;;;9.57;3.40;;;3.20;99.90;;;;;;6170686;23;20517;-87
2021/11/29 13:14:23;;;;;;;6.77;3.73;;;3.20;99.90;;;;;;6170979;23;20896;-86
2021/11/29 13:16:54;;;;;;;4.30;3.30;;;3.10;99.90;;;;;;6170900;23;20820;-85
2021/11/29 13:19:26;;;;;;;5.63;3.53;;;3.10;99.90;;;;;;6170895;23;20501;-85
2021/11/29 13:21:53;;;;;;;5.07;2.60;;;3.10;99.90;;;;;;6172679;23;20870;-84